createdAt,value
2019-03-23T00:02:08.343Z,22.17
2019-03-23T00:04:40.662Z,22.02
2019-03-23T00:07:13.140Z,21.30
2019-03-23T00:09:45.583Z,21.48
2019-03-23T00:12:19.286Z,20.55
2019-03-23T00:14:52.809Z,23.25
2019-03-23T00:17:25.324Z,21.57
2019-03-23T00:19:57.589Z,22.50
2019-03-23T00:22:29.899Z,22.50
2019-03-23T00:25:02.414Z,22.50
2019-03-23T00:27:34.765Z,21.80
2019-03-23T00:30:12.450Z,21.80
2019-03-23T00:35:16.530Z,21.52
2019-03-23T00:37:48.864Z,22.53
2019-03-23T00:40:22.393Z,21.70
2019-03-23T00:42:54.814Z,23.00
2019-03-23T00:45:27.285Z,21.82
2019-03-23T00:47:59.591Z,21.87
2019-03-23T00:50:32.051Z,21.35
2019-03-23T00:53:04.374Z,23.35
2019-03-23T00:55:36.835Z,21.82
2019-03-23T00:58:09.304Z,22.60
2019-03-23T01:00:41.772Z,20.70
2019-03-23T01:03:14.348Z,21.80
2019-03-23T01:05:46.434Z,24.15
2019-03-23T01:08:18.442Z,22.02
2019-03-23T01:10:50.645Z,22.22
2019-03-23T01:13:23.066Z,21.52
2019-03-23T01:15:55.535Z,22.00
2019-03-23T01:18:28.016Z,22.45
2019-03-23T01:21:00.459Z,22.87
2019-03-23T01:26:04.744Z,22.30
2019-03-23T01:28:37.302Z,22.15
2019-03-23T01:31:11.300Z,23.40
2019-03-23T01:33:43.663Z,22.45
2019-03-23T01:36:16.297Z,23.22
2019-03-23T01:38:48.657Z,21.65
2019-03-23T01:41:21.336Z,21.70
2019-03-23T01:43:54.602Z,21.97
2019-03-23T01:46:27.276Z,22.58
2019-03-23T01:48:59.644Z,22.55
2019-03-23T01:51:32.058Z,22.13
2019-03-23T01:54:04.458Z,20.97
2019-03-23T01:59:22.282Z,21.75
2019-03-23T02:01:54.673Z,21.33
2019-03-23T02:04:27.306Z,22.50
2019-03-23T02:06:59.661Z,23.47
2019-03-23T02:09:39.052Z,22.50
2019-03-23T02:12:11.690Z,23.75
2019-03-23T02:14:44.284Z,21.70
2019-03-23T02:17:16.686Z,22.95
2019-03-23T02:19:49.295Z,23.12
2019-03-23T02:22:22.757Z,22.77
2019-03-23T02:24:55.303Z,21.95
2019-03-23T02:27:27.674Z,21.85
2019-03-23T02:30:00.473Z,22.55
2019-03-23T02:32:33.228Z,23.52
2019-03-23T02:35:09.715Z,22.25
2019-03-23T02:37:43.291Z,21.02
2019-03-23T02:40:16.538Z,22.98
2019-03-23T02:42:49.160Z,23.25
2019-03-23T02:45:21.842Z,24.30
2019-03-23T02:47:54.319Z,23.05
2019-03-23T02:50:26.601Z,21.87
2019-03-23T02:53:00.442Z,23.40
2019-03-23T02:55:34.344Z,23.40
2019-03-23T02:58:06.806Z,24.15
2019-03-23T03:00:39.373Z,23.73
2019-03-23T03:03:11.642Z,24.10
2019-03-23T03:05:44.291Z,23.00
2019-03-23T03:08:16.696Z,23.27
2019-03-23T03:10:49.301Z,24.40
2019-03-23T03:13:23.292Z,23.65
2019-03-23T03:15:57.821Z,22.60
2019-03-23T03:18:30.322Z,23.52
2019-03-23T03:21:04.287Z,23.60
2019-03-23T03:23:36.680Z,23.83
2019-03-23T03:26:09.272Z,22.62
2019-03-23T03:28:41.609Z,23.70
2019-03-23T03:31:14.321Z,21.87
2019-03-23T03:33:46.649Z,23.55
2019-03-23T03:36:19.296Z,22.48
2019-03-23T03:38:51.565Z,24.70
2019-03-23T03:41:23.839Z,24.98
2019-03-23T03:43:56.292Z,24.18
2019-03-23T03:46:28.554Z,23.05
2019-03-23T03:49:11.846Z,23.45
2019-03-23T03:51:34.936Z,23.83
2019-03-23T03:54:07.339Z,24.25
2019-03-23T03:56:39.759Z,24.23
2019-03-23T03:59:12.334Z,23.30
2019-03-23T04:01:44.630Z,25.00
2019-03-23T04:04:17.303Z,23.90
2019-03-23T04:06:49.566Z,24.10
2019-03-23T04:09:22.044Z,24.32
2019-03-23T04:11:54.375Z,24.85
2019-03-23T04:16:59.529Z,24.25
2019-03-23T04:19:31.825Z,23.95
2019-03-23T04:22:04.315Z,24.52
2019-03-23T04:24:36.247Z,23.35
2019-03-23T04:27:08.559Z,23.40
2019-03-23T04:29:41.337Z,25.02
2019-03-23T04:32:13.774Z,25.10
2019-03-23T04:34:46.303Z,26.00
2019-03-23T04:37:19.006Z,25.43
2019-03-23T04:39:51.469Z,24.35
2019-03-23T04:42:24.276Z,23.90
2019-03-23T04:44:56.867Z,25.30
2019-03-23T04:47:29.287Z,23.80
2019-03-23T04:50:01.700Z,23.83
2019-03-23T04:52:35.274Z,23.93
2019-03-23T04:55:14.415Z,26.10
2019-03-23T04:57:46.816Z,24.50
2019-03-23T05:00:21.983Z,25.13
2019-03-23T05:02:55.523Z,24.67
2019-03-23T05:05:27.830Z,24.25
2019-03-23T05:08:00.361Z,25.90
2019-03-23T05:10:32.845Z,25.77
2019-03-23T05:13:05.281Z,24.67
2019-03-23T05:15:37.559Z,24.40
2019-03-23T05:18:09.821Z,25.10
2019-03-23T05:20:42.296Z,25.13
2019-03-23T05:23:15.578Z,25.40
2019-03-23T05:25:47.713Z,26.17
2019-03-23T05:28:20.344Z,25.20
2019-03-23T05:30:54.383Z,24.40
2019-03-23T05:33:26.808Z,24.17
2019-03-23T05:35:59.348Z,24.40
2019-03-23T05:38:31.819Z,24.65
2019-03-23T05:41:04.297Z,24.50
2019-03-23T05:43:36.855Z,24.53
2019-03-23T05:46:14.617Z,25.10
2019-03-23T05:48:47.393Z,24.57
2019-03-23T05:53:54.423Z,23.53
2019-03-23T05:58:58.819Z,24.37
2019-03-23T06:01:31.365Z,24.43
2019-03-23T06:04:04.285Z,24.60
2019-03-23T06:06:36.743Z,26.63
2019-03-23T06:09:09.877Z,24.43
2019-03-23T06:11:42.300Z,26.43
2019-03-23T06:14:14.700Z,24.57
2019-03-23T06:16:47.301Z,23.57
2019-03-23T06:19:19.839Z,24.35
2019-03-23T06:21:52.289Z,25.45
2019-03-23T06:24:24.593Z,24.75
2019-03-23T06:26:57.067Z,25.05
2019-03-23T06:29:29.452Z,25.00
2019-03-23T06:34:33.432Z,25.25
2019-03-23T06:37:07.445Z,24.25
2019-03-23T06:39:39.826Z,23.50
2019-03-23T06:42:13.678Z,23.07
2019-03-23T06:44:46.290Z,23.22
2019-03-23T06:47:18.633Z,24.23
2019-03-23T06:49:51.257Z,21.55
2019-03-23T06:52:25.317Z,22.87
2019-03-23T06:54:57.760Z,23.87
2019-03-23T06:57:30.370Z,24.15
2019-03-23T07:00:02.706Z,24.32
2019-03-23T07:02:35.281Z,25.25
2019-03-23T07:05:11.303Z,23.87
2019-03-23T07:07:47.381Z,23.47
2019-03-23T07:10:19.713Z,23.18
2019-03-23T07:12:52.289Z,21.97
2019-03-23T07:15:24.562Z,22.07
2019-03-23T07:18:27.051Z,24.75
2019-03-23T07:20:59.371Z,23.50
2019-03-23T07:23:34.480Z,22.40
2019-03-23T07:28:38.604Z,22.98
2019-03-23T07:31:11.297Z,23.18
2019-03-23T07:33:43.761Z,23.77
2019-03-23T07:36:16.425Z,23.95
2019-03-23T07:38:49.332Z,22.87
2019-03-23T07:41:21.793Z,21.97
2019-03-23T07:43:54.335Z,22.13
2019-03-23T07:46:26.823Z,22.35
2019-03-23T07:48:59.281Z,22.30
2019-03-23T07:51:31.326Z,22.10
2019-03-23T07:54:03.737Z,21.93
2019-03-23T07:56:36.287Z,21.45
2019-03-23T07:59:09.305Z,22.00
2019-03-23T08:01:41.746Z,21.97
2019-03-23T08:04:14.288Z,21.52
2019-03-23T08:06:46.934Z,22.30
2019-03-23T08:09:20.616Z,21.97
2019-03-23T08:11:53.422Z,21.25
2019-03-23T08:16:57.322Z,22.98
2019-03-23T08:19:29.406Z,22.62
2019-03-23T08:22:01.686Z,21.45
2019-03-23T08:24:34.279Z,20.85
2019-03-23T08:27:06.733Z,21.25
2019-03-23T08:29:39.266Z,20.75
2019-03-23T08:32:11.629Z,20.50
2019-03-23T08:34:44.021Z,20.32
2019-03-23T08:37:16.525Z,20.48
2019-03-23T08:39:48.945Z,21.87
2019-03-23T08:42:21.514Z,20.95
2019-03-23T08:44:54.047Z,20.67
2019-03-23T08:47:27.373Z,20.52
2019-03-23T08:52:32.282Z,20.35
2019-03-23T08:55:05.317Z,20.40
2019-03-23T08:57:41.256Z,20.85
2019-03-23T09:00:14.006Z,19.75
2019-03-23T09:02:46.379Z,21.05
2019-03-23T09:05:18.885Z,20.20
2019-03-23T09:07:52.590Z,20.52
2019-03-23T09:10:25.456Z,19.82
2019-03-23T09:12:58.282Z,20.10
2019-03-23T09:15:32.791Z,19.52
2019-03-23T09:18:05.326Z,19.45
2019-03-23T09:20:38.850Z,18.75
2019-03-23T09:23:11.315Z,19.48
2019-03-23T09:25:45.615Z,20.57
2019-03-23T09:28:18.036Z,19.33
2019-03-23T09:30:50.542Z,18.87
2019-03-23T09:33:22.853Z,19.17
2019-03-23T09:35:55.310Z,19.48
2019-03-23T09:38:27.603Z,19.12
2019-03-23T09:41:00.371Z,20.05
2019-03-23T09:43:32.734Z,19.05
2019-03-23T09:46:05.553Z,20.57
2019-03-23T09:48:39.764Z,18.85
2019-03-23T09:51:12.297Z,19.37
2019-03-23T09:53:44.670Z,20.20
2019-03-23T09:56:17.293Z,21.02
2019-03-23T09:58:49.746Z,21.05
2019-03-23T10:01:22.308Z,20.23
2019-03-23T10:03:55.025Z,20.75
2019-03-23T10:06:27.474Z,21.35
2019-03-23T10:11:31.333Z,21.68
2019-03-23T10:16:36.558Z,24.18
2019-03-23T10:19:08.992Z,24.05
2019-03-23T10:21:41.309Z,25.20
2019-03-23T10:24:13.779Z,24.95
2019-03-23T10:26:46.296Z,24.82
2019-03-23T10:29:18.658Z,25.35
2019-03-23T10:31:51.307Z,24.92
2019-03-23T10:34:24.018Z,25.72
2019-03-23T10:36:56.631Z,25.12
2019-03-23T10:39:29.420Z,26.55
2019-03-23T10:44:35.007Z,28.20
2019-03-23T10:47:07.739Z,28.05
2019-03-23T10:49:41.303Z,26.55
2019-03-23T10:52:22.973Z,26.85
2019-03-23T10:54:59.393Z,27.67
2019-03-23T10:57:37.636Z,27.50
2019-03-23T11:00:14.302Z,27.60
2019-03-23T11:02:49.795Z,26.48
2019-03-23T11:07:58.574Z,26.95
2019-03-23T11:10:41.581Z,26.73
2019-03-23T11:13:08.231Z,27.65
2019-03-23T11:15:41.308Z,26.60
2019-03-23T11:20:49.282Z,27.58
2019-03-23T11:25:58.429Z,27.17
2019-03-23T11:28:31.301Z,26.82
2019-03-23T11:31:11.314Z,27.77
2019-03-23T11:33:45.507Z,27.35
2019-03-23T11:38:51.821Z,27.02
2019-03-23T11:41:31.403Z,28.05
2019-03-23T11:46:35.803Z,28.38
2019-03-23T11:49:11.795Z,29.42
2019-03-23T11:51:44.542Z,27.93
2019-03-23T11:54:16.886Z,27.20
2019-03-23T11:56:49.455Z,30.55
2019-03-23T12:01:59.774Z,29.02
2019-03-23T12:04:39.933Z,29.00
2019-03-23T12:07:16.860Z,28.67
2019-03-23T12:09:49.459Z,28.02
2019-03-23T12:14:56.908Z,27.60
2019-03-23T12:17:29.944Z,28.12
2019-03-23T12:20:04.638Z,27.10
2019-03-23T12:22:38.460Z,27.90
2019-03-23T12:25:12.336Z,26.80
2019-03-23T12:30:20.447Z,26.70
2019-03-23T12:32:53.045Z,26.82
2019-03-23T12:35:25.716Z,26.68
2019-03-23T12:37:58.289Z,27.67
2019-03-23T12:40:30.583Z,25.32
2019-03-23T12:43:03.292Z,26.07
2019-03-23T12:48:07.359Z,23.40
2019-03-23T12:53:11.506Z,25.80
2019-03-23T12:55:44.047Z,23.98
2019-03-23T12:58:16.503Z,26.52
2019-03-23T13:00:48.836Z,25.15
2019-03-23T13:03:21.353Z,25.20
2019-03-23T13:08:25.750Z,26.50
2019-03-23T13:10:58.301Z,24.72
2019-03-23T13:16:04.326Z,25.35
2019-03-23T13:18:37.025Z,24.10
2019-03-23T13:21:13.279Z,24.67
2019-03-23T13:23:46.737Z,24.40
2019-03-23T13:26:21.037Z,23.62
2019-03-23T13:28:53.688Z,22.95
2019-03-23T13:31:26.624Z,22.67
2019-03-23T13:33:59.349Z,22.55
2019-03-23T13:39:05.271Z,22.07
2019-03-23T13:41:49.147Z,21.60
2019-03-23T13:44:22.288Z,20.57
2019-03-23T13:51:57.434Z,20.68
2019-03-23T13:54:29.745Z,20.32
2019-03-23T13:57:02.294Z,19.80
2019-03-23T13:59:34.612Z,19.32
2019-03-23T14:02:07.296Z,18.37
2019-03-23T14:04:39.749Z,18.50
2019-03-23T14:07:12.291Z,19.65
2019-03-23T14:09:44.842Z,20.90
2019-03-23T14:12:17.329Z,20.37
2019-03-23T14:17:20.616Z,18.45
2019-03-23T14:19:53.035Z,18.82
2019-03-23T14:22:28.399Z,20.08
2019-03-23T14:25:03.291Z,20.60
2019-03-23T14:27:35.264Z,19.23
2019-03-23T14:30:09.354Z,20.00
2019-03-23T14:32:41.770Z,21.55
2019-03-23T14:35:15.681Z,19.70
2019-03-23T14:37:48.282Z,20.62
2019-03-23T14:40:20.645Z,19.85
2019-03-23T14:42:53.260Z,18.45
2019-03-23T14:45:27.285Z,19.85
2019-03-23T14:50:34.321Z,20.08
2019-03-23T14:53:06.698Z,19.10
2019-03-23T14:55:39.294Z,19.50
2019-03-23T14:58:13.306Z,18.35
2019-03-23T15:00:45.607Z,19.45
2019-03-23T15:03:18.103Z,19.15
2019-03-23T15:05:50.470Z,19.73
2019-03-23T15:08:23.033Z,19.75
2019-03-23T15:10:55.384Z,21.55
2019-03-23T15:18:33.374Z,21.17
2019-03-23T15:23:37.418Z,20.50
2019-03-23T15:28:44.446Z,20.68
2019-03-23T15:33:48.457Z,21.15
2019-03-23T15:38:52.449Z,20.05
2019-03-23T15:43:58.422Z,20.77
2019-03-23T15:49:02.398Z,21.10
2019-03-23T15:54:06.614Z,21.48
2019-03-23T15:56:39.090Z,21.52
2019-03-23T15:59:11.441Z,21.35
2019-03-23T16:04:15.534Z,20.88
2019-03-23T16:06:47.876Z,21.30
2019-03-23T16:09:20.330Z,21.97
2019-03-23T16:11:52.696Z,20.97
2019-03-23T16:14:25.331Z,20.80
2019-03-23T16:16:57.668Z,21.65
2019-03-23T16:19:30.292Z,22.62
2019-03-23T16:22:03.086Z,21.80
2019-03-23T16:24:36.747Z,23.38
2019-03-23T16:27:09.374Z,25.43
2019-03-23T16:32:13.292Z,28.47
2019-03-23T16:34:51.010Z,38.80
2019-03-23T16:37:23.531Z,24.02
2019-03-23T16:39:58.327Z,25.70
2019-03-23T16:42:30.812Z,24.00
2019-03-23T16:45:03.342Z,24.20
2019-03-23T16:52:45.290Z,25.32
2019-03-23T16:55:17.975Z,26.15
2019-03-23T16:57:51.485Z,24.45
2019-03-23T17:00:49.453Z,23.10
2019-03-23T17:06:08.272Z,19.35
2019-03-23T17:08:42.359Z,19.65
2019-03-23T17:11:16.305Z,27.07
2019-03-23T17:13:50.420Z,23.98
2019-03-23T17:19:03.885Z,27.85
2019-03-23T19:29:10.071Z,26.70
2019-03-23T19:31:42.407Z,25.55
2019-03-23T19:34:14.697Z,25.25
2019-03-23T19:36:47.303Z,25.12
2019-03-23T19:39:19.775Z,25.50
2019-03-23T19:41:52.426Z,26.10
2019-03-23T19:44:24.867Z,26.10
2019-03-23T19:46:57.855Z,25.62
2019-03-23T19:49:30.293Z,26.80
2019-03-23T19:52:02.577Z,26.90
2019-03-23T19:54:35.294Z,27.75
2019-03-23T19:57:08.042Z,26.42
2019-03-23T19:59:43.313Z,29.18
2019-03-23T20:02:15.868Z,28.75
2019-03-23T20:04:48.699Z,29.12
2019-03-23T20:07:21.072Z,27.45
2019-03-23T20:09:53.526Z,27.87
2019-03-23T20:12:26.287Z,27.55
2019-03-23T20:14:58.493Z,24.65
2019-03-23T20:20:08.658Z,25.52
2019-03-23T20:22:42.409Z,25.85
2019-03-23T20:25:17.140Z,24.70
2019-03-23T20:27:49.648Z,23.73
2019-03-23T20:30:23.509Z,28.27
2019-03-23T20:32:56.322Z,26.50
2019-03-23T20:35:28.661Z,24.25
2019-03-23T20:38:01.347Z,22.62
2019-03-23T20:43:08.338Z,29.35
2019-03-23T20:50:07.453Z,25.10
2019-03-23T20:55:28.288Z,24.47
2019-03-23T20:58:02.237Z,24.90
2019-03-23T21:00:36.441Z,23.80
2019-03-23T21:03:10.477Z,24.20
2019-03-23T21:08:14.856Z,24.72
2019-03-23T21:10:47.368Z,28.17
2019-03-23T21:13:21.496Z,26.82
2019-03-23T21:26:22.787Z,25.35
2019-03-23T21:35:58.363Z,32.40
2019-03-23T21:38:30.980Z,32.10
2019-03-23T21:41:05.307Z,31.30
2019-03-23T21:43:37.810Z,30.57
2019-03-23T21:46:10.297Z,31.45
2019-03-23T21:48:42.290Z,28.65
2019-03-23T21:51:14.643Z,28.62
2019-03-23T21:53:48.514Z,27.17
2019-03-23T21:58:52.635Z,28.98
2019-03-23T22:01:25.340Z,31.93
2019-03-23T22:03:57.875Z,28.32
2019-03-23T22:06:30.534Z,28.40
2019-03-23T22:09:05.064Z,29.65
2019-03-23T22:11:37.728Z,28.73
2019-03-23T22:14:11.312Z,29.70
2019-03-23T22:16:44.332Z,28.12
2019-03-23T22:19:18.550Z,28.55
2019-03-23T22:21:51.307Z,28.27
2019-03-23T22:26:56.011Z,28.65
2019-03-23T22:29:29.679Z,28.77
2019-03-23T22:32:02.500Z,28.62
2019-03-23T22:34:44.331Z,27.93
2019-03-23T22:37:15.972Z,30.10
2019-03-23T22:39:48.976Z,29.10
2019-03-23T22:42:24.517Z,27.13
2019-03-23T22:44:57.296Z,27.95
2019-03-23T22:47:29.578Z,27.77
2019-03-23T22:50:02.017Z,29.63
2019-03-23T22:52:36.393Z,27.37
2019-03-23T22:57:42.425Z,29.32
2019-03-23T23:02:54.587Z,28.25
2019-03-23T23:05:27.018Z,30.05
2019-03-23T23:07:59.510Z,29.10
2019-03-23T23:15:35.516Z,29.48
2019-03-23T23:18:07.968Z,31.07
2019-03-23T23:20:40.368Z,29.92
2019-03-23T23:23:12.420Z,29.07
2019-03-23T23:25:45.989Z,29.23
2019-03-23T23:28:18.610Z,29.60
2019-03-23T23:30:51.104Z,29.52
2019-03-23T23:33:23.552Z,28.65
2019-03-23T23:35:56.091Z,30.57
2019-03-23T23:38:28.397Z,30.97
2019-03-23T23:41:00.682Z,27.95
2019-03-23T23:43:33.299Z,31.23
2019-03-23T23:46:05.728Z,32.03
2019-03-23T23:48:38.363Z,32.98
2019-03-23T23:51:11.503Z,30.30
2019-03-23T23:53:44.295Z,29.80
2019-03-23T23:56:16.625Z,32.03
2019-03-23T23:58:49.302Z,31.68
